Terminal Aerodrome Forecast
Issued by NWS Central Illinois

Home | Current Version | Previous Version | Text Only | Print | Product List | Glossary On
Versions: 1 2 3 4 5 6 7 8 9 10 11 12 13
000
FTUS43 KILX 031727
TAFPIA
TAF
KPIA 031727Z 0318/0418 24012KT P6SM SCT050
     FM040000 20003KT P6SM SCT100 BKN250
     FM041300 22006KT P6SM SCT045 BKN250=

USA.gov is the U.S. government's official web portal to all federal, state and local government web resources and services.